Time;durP1;ratioP1;P1;durP2;ratioP2;P2;SDS_P1;SDS_P2;PMS_P1;PMS_P2;Temp;Humidity;BMP_temperature;BMP_pressure;BME280_temperature;BME280_humidity;BME280_pressure;Samples;Min_cycle;Max_cycle;Signal;HPM_P1;HPM_P2
2020/12/18 00:03:19;;;;;;;22.53;11.63;;;;;;;2.66;81.32;99603.69;261614;1101;23353;-76
2020/12/18 00:08:21;;;;;;;21.03;10.93;;;;;;;2.65;81.28;99609.20;261484;1101;23322;-76
2020/12/18 00:13:26;;;;;;;22.50;12.40;;;;;;;2.61;81.70;99600.08;261638;1101;23435;-76
2020/12/18 00:18:28;;;;;;;21.95;11.80;;;;;;;2.59;81.94;99602.94;261555;1101;23528;-75
2020/12/18 00:23:33;;;;;;;19.00;9.60;;;;;;;2.64;82.00;99599.64;261468;1101;23410;-75
2020/12/18 00:28:44;;;;;;;22.27;11.43;;;;;;;2.66;82.06;99586.98;261504;1101;26848;-76
2020/12/18 00:33:46;;;;;;;20.00;10.80;;;;;;;2.64;81.96;99605.73;261715;1101;23354;-76
2020/12/18 00:38:48;;;;;;;21.83;11.50;;;;;;;2.64;81.98;99604.93;261549;1101;23408;-76
2020/12/18 00:43:50;;;;;;;23.27;10.90;;;;;;;2.64;81.67;99604.93;261515;1101;23365;-76
2020/12/18 00:48:53;;;;;;;27.67;13.10;;;;;;;2.62;81.80;99607.00;261490;1101;23420;-76
2020/12/18 00:53:57;;;;;;;22.70;11.63;;;;;;;2.64;82.49;99615.52;261554;1101;27034;-76
2020/12/18 00:58:59;;;;;;;24.35;11.90;;;;;;;2.64;82.39;99615.52;261490;1101;23365;-76
2020/12/18 01:04:03;;;;;;;22.50;11.67;;;;;;;2.62;82.58;99615.73;261605;1101;23421;-77
2020/12/18 01:09:08;;;;;;;22.30;11.83;;;;;;;2.63;82.09;99620.00;261459;1101;23420;-77
2020/12/18 01:14:12;;;;;;;24.13;12.50;;;;;;;2.63;82.23;99622.65;261623;1101;23358;-78
2020/12/18 01:19:20;;;;;;;21.43;12.00;;;;;;;2.61;82.20;99619.39;261534;1101;26834;-76
2020/12/18 01:24:31;;;;;;;23.47;12.60;;;;;;;2.63;82.78;99624.47;261532;1101;23336;-77
2020/12/18 01:29:35;;;;;;;23.33;12.47;;;;;;;2.63;82.12;99621.82;261471;1101;23414;-76
2020/12/18 01:34:38;;;;;;;29.30;14.15;;;;;;;2.62;82.34;99620.22;261538;1101;23482;-75
2020/12/18 01:39:41;;;;;;;26.23;13.17;;;;;;;2.65;82.27;99627.72;261574;1101;23332;-77
2020/12/18 01:44:44;;;;;;;23.07;12.77;;;;;;;2.67;82.37;99631.78;261657;1101;23397;-76
2020/12/18 01:49:46;;;;;;;24.50;13.70;;;;;;;2.66;82.80;99629.32;261633;1101;23441;-76
2020/12/18 01:54:57;;;;;;;22.13;12.13;;;;;;;2.66;82.79;99631.97;261592;1101;23367;-76
2020/12/18 02:00:01;;;;;;;22.47;12.13;;;;;;;2.69;82.87;99631.56;261685;1101;23409;-76
2020/12/18 02:05:16;;;;;;;24.20;12.63;;;;;;;2.70;82.47;99631.34;261554;1101;23456;-75
2020/12/18 02:10:18;;;;;;;27.20;13.00;;;;;;;2.71;82.73;99632.14;261467;1101;23559;-76
2020/12/18 02:15:22;;;;;;;19.80;11.37;;;;;;;2.76;82.26;99634.96;261504;1101;23353;-76
2020/12/18 02:20:44;;;;;;;27.70;14.05;;;;;;;2.77;82.69;99627.82;261507;1101;23347;-75
2020/12/18 02:26:05;;;;;;;25.27;13.17;;;;;;;2.74;82.59;99629.89;261573;1101;23520;-77
2020/12/18 02:31:20;;;;;;;26.73;13.90;;;;;;;2.76;82.67;99639.42;261521;1101;23329;-76
2020/12/18 02:36:41;;;;;;;22.33;11.83;;;;;;;2.77;82.45;99651.64;261585;1101;24007;-76
2020/12/18 02:41:44;;;;;;;28.60;13.60;;;;;;;2.80;82.51;99646.73;261488;1101;23420;-76
2020/12/18 02:46:57;;;;;;;26.60;13.57;;;;;;;2.85;82.65;99640.79;261495;1101;23408;-76
2020/12/18 02:52:00;;;;;;;24.53;12.50;;;;;;;2.83;82.17;99646.30;261547;1101;23422;-76
2020/12/18 02:57:18;;;;;;;22.73;12.07;;;;;;;2.81;81.98;99640.42;261553;1101;23478;-76
2020/12/18 03:02:38;;;;;;;22.55;11.80;;;;;;;2.82;82.24;99649.16;261555;1101;23353;-76
2020/12/18 03:07:42;;;;;;;22.30;11.90;;;;;;;2.79;82.12;99639.02;261445;1101;23408;-77
2020/12/18 03:12:45;;;;;;;23.75;12.45;;;;;;;2.75;82.70;99643.91;261523;1101;23333;-77
2020/12/18 03:17:50;;;;;;;24.63;12.00;;;;;;;2.75;82.62;99657.14;261433;1101;23420;-76
2020/12/18 03:22:52;;;;;;;24.30;12.33;;;;;;;2.70;82.47;99654.33;261396;1101;23559;-75
2020/12/18 03:28:23;;;;;;;20.80;11.10;;;;;;;2.72;82.70;99662.88;261695;1101;23542;-76
2020/12/18 03:33:26;;;;;;;25.03;11.03;;;;;;;2.67;82.63;99663.52;261475;1101;23415;-77
2020/12/18 03:38:35;;;;;;;17.37;9.13;;;;;;;2.62;82.72;99663.34;261452;1101;23351;-76
2020/12/18 03:43:38;;;;;;;22.67;11.40;;;;;;;2.58;83.20;99666.64;262185;1101;23342;-75
2020/12/18 03:48:44;;;;;;;20.90;11.00;;;;;;;2.54;83.62;99667.05;261556;1101;23475;-76
2020/12/18 03:54:07;;;;;;;23.53;11.67;;;;;;;2.49;83.60;99677.48;261458;1101;23458;-76
2020/12/18 03:59:40;;;;;;;24.40;11.00;;;;;;;2.50;83.87;99679.08;261484;1101;23545;-76
2020/12/18 04:04:59;;;;;;;19.17;9.93;;;;;;;2.57;83.94;99676.39;261604;1101;23401;-76
2020/12/18 04:10:03;;;;;;;21.15;10.80;;;;;;;2.60;83.68;99683.09;261478;1101;23414;-75
2020/12/18 04:15:10;;;;;;;23.07;12.23;;;;;;;2.60;83.26;99680.45;261599;1101;23997;-76
2020/12/18 04:20:27;;;;;;;25.05;12.53;;;;;;;2.57;83.46;99676.39;261907;1101;23533;-76
2020/12/18 04:25:45;;;;;;;18.37;10.43;;;;;;;2.60;83.76;99680.45;261541;1097;29485;-76
2020/12/18 04:30:47;;;;;;;22.53;11.73;;;;;;;2.56;83.96;99678.24;261636;1101;23408;-76
2020/12/18 04:35:50;;;;;;;22.13;11.23;;;;;;;2.55;83.83;99684.55;261627;1101;23347;-75
2020/12/18 04:40:59;;;;;;;23.43;12.23;;;;;;;2.54;83.75;99679.47;261536;1101;23351;-75
2020/12/18 04:46:17;;;;;;;21.80;10.37;;;;;;;2.52;84.73;99692.91;261610;1101;23371;-76
2020/12/18 04:51:26;;;;;;;19.80;10.35;;;;;;;2.51;84.62;99682.55;261433;1101;28276;-77
2020/12/18 04:56:37;;;;;;;22.10;11.70;;;;;;;2.51;84.64;99680.70;261433;1101;23485;-77
2020/12/18 05:01:53;;;;;;;20.90;11.63;;;;;;;2.53;84.46;99688.42;261441;1101;23352;-77
2020/12/18 05:06:56;;;;;;;27.60;12.70;;;;;;;2.54;84.73;99688.20;261534;1101;23355;-76
2020/12/18 05:12:09;;;;;;;22.37;11.33;;;;;;;2.58;84.58;99701.83;261518;1101;23392;-76
2020/12/18 05:17:20;;;;;;;25.80;12.83;;;;;;;2.60;85.01;99694.48;261533;1101;23514;-76
2020/12/18 05:22:24;;;;;;;27.32;13.95;;;;;;;2.65;85.10;99694.66;261569;1101;23349;-77
2020/12/18 05:27:56;;;;;;;27.60;13.93;;;;;;;2.70;84.66;99707.23;261467;1101;23386;-76
2020/12/18 05:32:59;;;;;;;24.10;11.67;;;;;;;2.75;84.66;99720.65;261590;1101;23352;-77
2020/12/18 05:38:13;;;;;;;26.57;13.93;;;;;;;2.73;84.85;99718.22;261517;1101;23422;-76
2020/12/18 05:43:21;;;;;;;23.47;12.40;;;;;;;2.73;84.61;99725.36;261495;1101;23368;-77
2020/12/18 05:48:31;;;;;;;25.30;13.70;;;;;;;2.67;84.69;99721.73;261487;1101;23913;-76
2020/12/18 05:53:43;;;;;;;23.15;11.43;;;;;;;2.68;84.71;99728.63;261538;1101;24933;-76
2020/12/18 05:58:53;;;;;;;27.30;13.07;;;;;;;2.71;84.83;99728.22;261627;1101;23556;-76
2020/12/18 06:04:19;;;;;;;27.90;12.80;;;;;;;2.70;84.71;99716.01;261504;1101;23499;-75
2020/12/18 06:09:26;;;;;;;30.53;14.70;;;;;;;2.76;84.68;99724.92;261598;1101;23552;-76
2020/12/18 06:14:29;;;;;;;25.00;12.70;;;;;;;2.77;84.62;99737.14;261633;1101;23351;-76
2020/12/18 06:19:43;;;;;;;33.33;16.37;;;;;;;2.77;84.86;99737.14;261678;1101;23401;-76
2020/12/18 06:24:49;;;;;;;32.35;15.10;;;;;;;2.79;84.79;99745.66;261663;1101;23417;-76
2020/12/18 06:30:09;;;;;;;25.47;13.87;;;;;;;2.83;84.54;99744.22;261376;1101;26447;-76
2020/12/18 06:35:36;;;;;;;32.80;15.23;;;;;;;2.84;84.70;99755.59;261398;1101;24950;-76
2020/12/18 06:40:57;;;;;;;37.17;17.93;;;;;;;2.88;84.92;99765.56;261601;1101;23351;-76
2020/12/18 06:46:19;;;;;;;31.97;15.33;;;;;;;2.95;84.93;99764.70;262191;1101;23347;-75
2020/12/18 06:51:46;;;;;;;29.73;14.17;;;;;;;2.98;84.67;99766.91;261971;1101;23921;-75
2020/12/18 06:57:21;;;;;;;30.85;15.40;;;;;;;2.98;84.85;99765.09;261786;1101;23500;-75
2020/12/18 07:02:38;;;;;;;41.30;20.27;;;;;;;2.99;85.10;99768.55;261749;1101;23486;-76
2020/12/18 07:07:41;;;;;;;35.83;17.47;;;;;;;3.02;84.68;99776.05;261941;1101;23414;-78
2020/12/18 07:12:49;;;;;;;44.83;19.67;;;;;;;3.05;84.71;99781.74;261826;1101;23811;-77
2020/12/18 07:17:55;;;;;;;43.30;20.40;;;;;;;3.04;84.85;99785.41;261863;1101;29071;-76
2020/12/18 07:22:57;;;;;;;42.17;22.10;;;;;;;3.08;84.78;99783.16;261924;1101;23334;-77
2020/12/18 07:28:00;;;;;;;45.63;20.83;;;;;;;3.14;85.11;99784.14;262217;1101;23581;-77
2020/12/18 07:33:03;;;;;;;40.70;18.67;;;;;;;3.20;84.68;99783.27;262503;1101;23425;-77
2020/12/18 07:38:18;;;;;;;38.80;18.55;;;;;;;3.27;84.43;99786.67;262349;1101;23426;-76
2020/12/18 07:43:23;;;;;;;40.20;21.07;;;;;;;3.33;84.99;99787.64;262558;1097;23568;-78
2020/12/18 07:48:27;;;;;;;45.60;21.97;;;;;;;3.36;84.53;99790.69;264564;1101;23457;-77
2020/12/18 07:53:32;;;;;;;34.93;18.37;;;;;;;3.41;84.55;99788.22;262651;1101;23416;-78
2020/12/18 07:58:45;;;;;;;38.50;19.93;;;;;;;3.47;84.15;99791.00;265495;1101;23410;-78
2020/12/18 08:03:56;;;;;;;46.55;22.40;;;;;;;3.52;84.07;99786.67;262255;1093;23382;-78
2020/12/18 08:09:12;;;;;;;36.70;18.70;;;;;;;3.64;84.45;99793.91;262014;1101;23393;-78
2020/12/18 08:14:16;;;;;;;36.40;18.20;;;;;;;3.72;83.80;99796.29;261907;1101;23402;-77
2020/12/18 08:19:18;;;;;;;39.17;20.03;;;;;;;3.76;84.19;99795.66;261974;1101;23633;-77
2020/12/18 08:24:30;;;;;;;43.50;23.23;;;;;;;3.83;84.21;99803.52;262105;1101;23326;-79
2020/12/18 08:29:35;;;;;;;43.00;22.10;;;;;;;3.94;84.01;99815.26;262394;1101;23383;-78
2020/12/18 08:34:37;;;;;;;33.30;19.00;;;;;;;3.96;83.28;99802.61;261886;1097;23347;-78
2020/12/18 08:39:40;;;;;;;39.70;21.87;;;;;;;3.95;83.23;99811.59;262424;1101;24124;-78
2020/12/18 08:44:44;;;;;;;35.90;19.70;;;;;;;3.91;83.13;99816.50;261892;1101;23401;-77
2020/12/18 08:49:47;;;;;;;36.80;18.33;;;;;;;3.93;83.09;99822.41;261875;1101;23411;-78
2020/12/18 08:54:59;;;;;;;45.10;22.63;;;;;;;3.90;82.90;99822.02;261898;1101;26839;-78
2020/12/18 09:00:04;;;;;;;43.63;22.13;;;;;;;3.93;82.90;99827.71;262071;1101;23458;-77
2020/12/18 09:05:24;;;;;;;44.17;22.03;;;;;;;4.00;83.37;99829.48;261828;1093;23343;-77
2020/12/18 09:10:28;;;;;;;46.70;22.27;;;;;;;4.08;83.60;99831.84;261900;1101;23907;-77
2020/12/18 09:15:31;;;;;;;41.17;21.90;;;;;;;4.21;83.37;99839.68;261986;1101;23319;-77
2020/12/18 09:20:35;;;;;;;46.73;22.53;;;;;;;4.27;82.78;99841.44;261702;1101;23475;-78
2020/12/18 09:25:42;;;;;;;44.57;22.30;;;;;;;4.34;83.03;99838.72;262107;1101;26942;-77
2020/12/18 09:30:54;;;;;;;41.60;22.20;;;;;;;4.41;82.91;99839.45;261889;1101;23351;-77
2020/12/18 09:36:08;;;;;;;42.80;22.83;;;;;;;4.48;82.70;99841.21;261946;1101;23319;-77
2020/12/18 09:41:13;;;;;;;41.63;21.87;;;;;;;4.57;82.59;99837.23;261533;1100;86621;-77
2020/12/18 09:46:18;;;;;;;39.70;20.27;;;;;;;4.60;82.21;99834.96;262177;1101;26800;-76
2020/12/18 09:51:21;;;;;;;40.50;21.35;;;;;;;4.58;82.24;99833.55;262275;1096;26839;-76
2020/12/18 09:56:24;;;;;;;41.95;20.75;;;;;;;4.60;82.19;99827.00;262349;1101;23417;-76
2020/12/18 10:01:26;;;;;;;37.95;20.70;;;;;;;4.62;82.40;99827.58;262648;1101;23353;-76
2020/12/18 10:06:28;;;;;;;41.75;20.85;;;;;;;4.60;82.07;99826.17;262254;1101;23407;-77
2020/12/18 10:11:30;;;;;;;34.35;17.50;;;;;;;4.57;82.07;99819.45;262387;1101;23335;-75
2020/12/18 10:16:32;;;;;;;37.73;20.60;;;;;;;4.54;81.53;99821.77;263814;1101;23279;-76
2020/12/18 10:21:34;;;;;;;37.10;19.93;;;;;;;4.60;82.67;99815.55;263055;1097;24995;-75
2020/12/18 10:26:36;;;;;;;40.53;18.60;;;;;;;4.78;81.77;99822.69;262638;1094;24475;-75
2020/12/18 10:31:38;;;;;;;40.57;18.90;;;;;;;4.96;81.13;99822.63;262217;1101;23853;-76
2020/12/18 10:36:40;;;;;;;42.27;21.47;;;;;;;5.10;81.46;99819.80;262015;1101;24003;-76
2020/12/18 10:41:43;;;;;;;39.57;21.43;;;;;;;5.18;80.80;99816.83;261861;1101;23417;-76
2020/12/18 10:46:46;;;;;;;40.67;20.77;;;;;;;5.20;81.19;99822.71;261801;1101;24356;-76
2020/12/18 10:51:48;;;;;;;41.53;21.03;;;;;;;5.25;81.32;99822.84;262118;1101;23546;-76
2020/12/18 10:56:52;;;;;;;39.63;21.67;;;;;;;5.30;81.58;99822.98;261803;1101;26933;-76
2020/12/18 11:01:56;;;;;;;47.70;22.43;;;;;;;5.35;81.81;99822.30;262031;1101;23957;-76
2020/12/18 11:06:59;;;;;;;45.93;25.20;;;;;;;5.39;81.50;99823.46;261764;1101;23353;-78
2020/12/18 11:12:01;;;;;;;55.43;27.23;;;;;;;5.43;81.27;99824.63;261855;1101;26596;-78
2020/12/18 11:17:03;;;;;;;54.60;27.97;;;;;;;5.43;80.88;99821.97;262061;1101;23361;-78
2020/12/18 11:22:05;;;;;;;60.67;30.30;;;;;;;5.46;81.13;99818.05;261740;1101;23420;-77
2020/12/18 11:27:07;;;;;;;57.13;28.60;;;;;;;5.53;80.87;99816.09;261962;1101;23336;-76
2020/12/18 11:32:10;;;;;;;62.47;32.33;;;;;;;5.53;80.86;99821.41;261840;1101;29069;-77
2020/12/18 11:37:13;;;;;;;64.63;33.10;;;;;;;5.65;81.03;99814.26;261759;1101;23365;-77
2020/12/18 11:42:15;;;;;;;57.20;29.20;;;;;;;5.86;81.31;99806.73;261974;1101;23421;-76
2020/12/18 11:47:17;;;;;;;54.00;27.33;;;;;;;6.09;81.34;99803.29;261732;1101;23359;-76
2020/12/18 11:52:19;;;;;;;44.57;22.60;;;;;;;6.29;81.79;99802.89;261895;1102;25143;-77
2020/12/18 11:57:21;;;;;;;50.55;26.10;;;;;;;6.45;81.04;99800.55;261519;1101;23347;-76
2020/12/18 12:02:23;;;;;;;52.73;26.37;;;;;;;6.63;81.06;99803.06;262217;1101;23334;-77
2020/12/18 12:07:25;;;;;;;43.25;23.85;;;;;;;6.81;80.94;99801.24;262394;1101;23497;-77
2020/12/18 12:12:27;;;;;;;39.87;21.90;;;;;;;6.91;80.71;99806.78;262127;1101;23405;-76
2020/12/18 12:17:29;;;;;;;43.20;22.70;;;;;;;6.96;80.21;99795.40;261897;1101;23543;-75
2020/12/18 12:22:33;;;;;;;30.53;17.83;;;;;;;6.97;79.79;99795.16;261864;1101;23354;-76
2020/12/18 12:27:35;;;;;;;42.03;23.17;;;;;;;6.87;78.66;99786.16;262877;1101;23413;-75
2020/12/18 12:32:37;;;;;;;46.90;23.90;;;;;;;6.81;79.13;99786.09;261997;1101;23392;-77
2020/12/18 12:37:39;;;;;;;43.37;24.93;;;;;;;6.85;79.18;99776.58;262275;1101;26577;-77
2020/12/18 12:42:41;;;;;;;47.33;25.63;;;;;;;6.89;78.97;99774.23;261935;1101;23420;-77
2020/12/18 12:47:43;;;;;;;44.55;23.35;;;;;;;6.84;79.19;99776.79;262109;1101;23329;-77
2020/12/18 12:52:45;;;;;;;54.70;27.70;;;;;;;6.80;78.85;99781.80;264495;1101;23363;-77
2020/12/18 12:57:47;;;;;;;48.80;26.05;;;;;;;6.85;78.73;99786.41;262150;1101;23559;-76
2020/12/18 13:02:49;;;;;;;46.67;24.70;;;;;;;6.91;78.79;99782.80;262130;1101;23881;-77
2020/12/18 13:07:54;;;;;;;43.63;23.47;;;;;;;6.81;78.24;99780.77;262113;1101;23414;-77
2020/12/18 13:12:56;;;;;;;41.33;23.47;;;;;;;6.76;78.25;99780.66;262380;1101;23407;-77
2020/12/18 13:17:58;;;;;;;43.15;22.05;;;;;;;6.71;78.35;99783.22;262710;1101;23523;-77
2020/12/18 13:23:00;;;;;;;36.07;19.10;;;;;;;6.59;77.87;99785.94;262739;1101;23935;-77
2020/12/18 13:28:02;;;;;;;40.97;21.90;;;;;;;6.50;78.16;99784.69;262840;1102;28678;-77
2020/12/18 13:33:05;;;;;;;44.20;22.27;;;;;;;6.40;77.76;99781.83;262984;1101;23389;-76
2020/12/18 13:38:07;;;;;;;38.73;20.13;;;;;;;6.33;78.15;99780.09;263286;1101;23379;-76
2020/12/18 13:43:10;;;;;;;43.47;22.23;;;;;;;6.28;77.99;99787.17;262388;1101;24024;-76
2020/12/18 13:48:12;;;;;;;51.47;26.07;;;;;;;6.22;78.22;99778.27;263670;1101;23420;-76
2020/12/18 13:53:14;;;;;;;65.27;33.53;;;;;;;6.15;78.44;99774.94;262310;1101;23374;-77
2020/12/18 13:58:17;;;;;;;59.90;32.30;;;;;;;6.03;78.47;99774.97;262117;1101;23366;-76
2020/12/18 14:03:19;;;;;;;62.27;31.43;;;;;;;5.96;78.62;99780.37;263260;1101;23482;-77
2020/12/18 14:08:21;;;;;;;58.67;31.30;;;;;;;5.84;78.56;99776.91;262199;1101;23363;-77
2020/12/18 14:13:23;;;;;;;53.97;28.30;;;;;;;5.72;78.24;99773.45;262459;1101;23419;-77
2020/12/18 14:18:26;;;;;;;51.50;28.00;;;;;;;5.59;78.12;99775.29;262426;1102;23365;-77
2020/12/18 14:23:28;;;;;;;52.73;29.80;;;;;;;5.52;78.49;99763.97;262296;1101;23414;-77
2020/12/18 14:28:30;;;;;;;61.70;33.10;;;;;;;5.39;78.52;99774.83;262074;1101;23353;-78
2020/12/18 14:33:32;;;;;;;60.47;30.60;;;;;;;5.25;79.51;99783.00;262370;1101;23347;-77
2020/12/18 14:38:36;;;;;;;64.43;30.13;;;;;;;5.08;78.61;99780.20;264763;1101;23358;-78
2020/12/18 14:43:41;;;;;;;72.85;34.25;;;;;;;4.94;78.94;99792.86;262147;1101;23353;-77
2020/12/18 14:48:44;;;;;;;76.77;36.00;;;;;;;4.81;79.17;99795.68;262042;1101;23489;-76
2020/12/18 14:53:46;;;;;;;87.37;42.13;;;;;;;4.70;79.32;99799.09;261911;1101;23958;-75
2020/12/18 14:58:50;;;;;;;55.43;27.30;;;;;;;4.51;79.01;99799.13;261973;1101;23427;-75
2020/12/18 15:03:52;;;;;;;60.07;31.33;;;;;;;4.16;78.77;99801.59;262248;1101;23416;-75
2020/12/18 15:08:54;;;;;;;59.03;30.20;;;;;;;3.77;79.00;99804.41;263006;1101;23408;-75
2020/12/18 15:13:57;;;;;;;69.17;32.83;;;;;;;3.49;79.15;99802.21;262188;1101;23419;-75
2020/12/18 15:18:59;;;;;;;64.47;30.97;;;;;;;3.26;79.67;99814.20;261719;1101;23387;-75
2020/12/18 15:24:01;;;;;;;62.35;32.15;;;;;;;2.95;80.15;99815.00;261681;1102;23418;-76
2020/12/18 15:29:03;;;;;;;76.23;34.00;;;;;;;2.67;80.53;99816.15;261571;1101;23902;-76
2020/12/18 15:34:05;;;;;;;70.77;34.87;;;;;;;2.45;80.71;99812.98;261478;1101;23357;-74
2020/12/18 15:39:08;;;;;;;76.37;34.53;;;;;;;2.23;81.49;99810.63;261540;1101;23348;-75
2020/12/18 15:44:10;;;;;;;57.23;25.10;;;;;;;2.12;82.44;99803.33;261545;1101;23353;-73
2020/12/18 15:49:12;;;;;;;75.10;33.40;;;;;;;2.06;82.93;99818.19;261482;1101;23908;-74
2020/12/18 15:54:14;;;;;;;74.30;32.25;;;;;;;2.06;83.22;99820.83;261702;1101;23542;-74
2020/12/18 15:59:18;;;;;;;72.10;29.60;;;;;;;2.11;83.36;99828.94;261431;1101;23408;-76
2020/12/18 16:04:20;;;;;;;68.10;30.10;;;;;;;2.20;83.15;99832.20;261620;1101;27258;-75
2020/12/18 16:09:22;;;;;;;67.70;32.50;;;;;;;2.31;83.86;99841.30;261493;1101;23417;-75
2020/12/18 16:14:24;;;;;;;64.43;28.90;;;;;;;2.38;83.68;99845.56;261474;1101;23414;-75
2020/12/18 16:19:26;;;;;;;69.50;28.90;;;;;;;2.43;83.90;99841.48;261512;1101;25124;-74
2020/12/18 16:24:28;;;;;;;74.27;31.13;;;;;;;2.48;83.35;99849.61;261475;1101;23348;-75
2020/12/18 16:29:30;;;;;;;67.33;28.83;;;;;;;2.54;83.92;99840.83;261372;1101;26503;-76
2020/12/18 16:34:32;;;;;;;57.47;26.47;;;;;;;2.56;83.60;99842.25;261564;1101;23765;-74
2020/12/18 16:39:35;;;;;;;68.10;29.53;;;;;;;2.64;83.99;99849.13;261455;1101;23353;-75
2020/12/18 16:44:37;;;;;;;75.05;30.60;;;;;;;2.71;84.28;99841.16;261465;1101;23421;-75
2020/12/18 16:49:40;;;;;;;59.00;27.43;;;;;;;2.77;84.01;99842.98;261448;1101;23401;-75
2020/12/18 16:54:42;;;;;;;65.60;28.95;;;;;;;2.77;84.23;99842.98;261555;1101;23558;-75
2020/12/18 16:59:44;;;;;;;77.00;32.77;;;;;;;2.79;83.98;99845.42;261512;1101;23667;-78
2020/12/18 17:04:46;;;;;;;66.60;31.63;;;;;;;2.82;84.38;99837.86;261722;1101;23581;-75
2020/12/18 17:09:48;;;;;;;75.67;36.17;;;;;;;2.86;84.37;99828.47;261545;1101;23333;-76
2020/12/18 17:14:52;;;;;;;84.93;37.87;;;;;;;2.89;84.21;99828.05;261720;1101;23346;-76
2020/12/18 17:19:54;;;;;;;69.83;31.50;;;;;;;2.98;84.45;99827.80;261553;1101;23392;-75
2020/12/18 17:24:57;;;;;;;77.73;37.13;;;;;;;3.04;84.32;99832.27;261471;1101;23636;-75
2020/12/18 17:29:59;;;;;;;55.53;27.27;;;;;;;3.01;83.69;99830.05;261464;1102;23417;-75
2020/12/18 17:35:01;;;;;;;52.65;24.20;;;;;;;2.97;84.17;99820.91;261508;1101;23503;-75
2020/12/18 17:40:05;;;;;;;45.00;22.75;;;;;;;2.93;84.07;99817.05;261500;1101;23914;-75
2020/12/18 17:45:08;;;;;;;50.90;24.27;;;;;;;2.86;84.13;99817.08;261464;1101;23414;-75
2020/12/18 17:50:10;;;;;;;57.57;26.40;;;;;;;2.82;84.17;99823.83;261592;1101;23428;-75
2020/12/18 17:55:12;;;;;;;54.00;25.90;;;;;;;2.85;84.21;99815.45;261555;1101;23472;-75
2020/12/18 18:00:14;;;;;;;49.87;24.57;;;;;;;2.85;84.64;99821.55;261412;1101;23416;-75
2020/12/18 18:05:17;;;;;;;47.20;22.95;;;;;;;2.84;84.58;99827.89;261502;1101;23359;-76
2020/12/18 18:10:19;;;;;;;53.17;24.13;;;;;;;2.85;84.22;99836.62;261628;1101;23411;-75
2020/12/18 18:15:22;;;;;;;41.47;21.53;;;;;;;2.86;84.83;99830.32;261461;1101;24991;-73
2020/12/18 18:20:24;;;;;;;43.80;20.80;;;;;;;2.81;83.87;99844.19;262133;1101;23775;-76
2020/12/18 18:25:27;;;;;;;35.73;18.13;;;;;;;2.81;84.38;99849.48;261705;1101;23381;-75
2020/12/18 18:30:30;;;;;;;43.55;21.90;;;;;;;2.82;84.14;99844.99;261517;1101;26874;-75
2020/12/18 18:35:33;;;;;;;32.97;16.60;;;;;;;2.80;84.21;99844.38;261519;1101;23387;-75
2020/12/18 18:40:35;;;;;;;39.53;19.10;;;;;;;2.74;84.47;99853.97;261482;1101;23417;-75
2020/12/18 18:45:38;;;;;;;36.30;17.63;;;;;;;2.71;84.62;99846.45;261485;1101;23555;-75
2020/12/18 18:50:40;;;;;;;48.77;23.60;;;;;;;2.68;84.95;99850.33;261588;1101;23420;-77
2020/12/18 18:55:46;;;;;;;48.25;22.40;;;;;;;2.68;85.01;99849.53;261521;1101;23446;-76
2020/12/18 19:00:48;;;;;;;43.37;21.00;;;;;;;2.71;84.59;99851.75;261481;1101;23358;-78
2020/12/18 19:05:50;;;;;;;38.20;18.53;;;;;;;2.77;84.97;99855.39;261501;1101;23411;-75
2020/12/18 19:10:52;;;;;;;41.53;20.43;;;;;;;2.76;85.06;99853.75;261473;1101;23367;-76
2020/12/18 19:15:54;;;;;;;36.53;16.57;;;;;;;2.74;84.80;99838.92;261729;1101;23392;-76
2020/12/18 19:20:57;;;;;;;47.17;22.50;;;;;;;2.75;84.75;99847.66;261664;1101;23361;-76
2020/12/18 19:26:00;;;;;;;46.90;22.53;;;;;;;2.79;85.04;99845.42;261616;1101;23371;-75
2020/12/18 19:31:02;;;;;;;48.27;22.60;;;;;;;2.81;85.06;99838.06;261493;1101;23520;-75
2020/12/18 19:36:05;;;;;;;46.33;20.43;;;;;;;2.82;84.60;99831.77;261469;1101;23827;-75
2020/12/18 19:41:08;;;;;;;33.17;16.57;;;;;;;2.85;84.77;99832.13;261714;1101;26969;-75
2020/12/18 19:46:10;;;;;;;33.20;16.05;;;;;;;2.88;84.77;99825.61;261519;1101;23972;-75
2020/12/18 19:51:12;;;;;;;31.20;15.00;;;;;;;2.83;84.52;99826.25;261538;1101;23418;-76
2020/12/18 19:56:15;;;;;;;38.67;18.10;;;;;;;2.79;85.02;99813.66;261545;1101;23453;-75
2020/12/18 20:01:18;;;;;;;39.15;19.80;;;;;;;2.74;85.14;99824.86;261526;1101;28190;-75
2020/12/18 20:06:20;;;;;;;39.33;18.30;;;;;;;2.70;84.84;99815.72;261462;1101;23365;-75
2020/12/18 20:11:28;;;;;;;34.13;17.13;;;;;;;2.69;85.06;99820.21;261517;1101;23386;-77
2020/12/18 20:16:30;;;;;;;35.45;16.75;;;;;;;2.63;84.80;99814.94;261526;1101;23581;-75
2020/12/18 20:21:33;;;;;;;39.90;19.23;;;;;;;2.59;84.69;99809.28;261476;1101;24083;-75
2020/12/18 20:26:35;;;;;;;38.10;17.53;;;;;;;2.56;85.40;99807.86;261444;1101;23357;-75
2020/12/18 20:31:38;;;;;;;36.73;17.00;;;;;;;2.50;84.95;99798.10;261458;1101;23359;-75
2020/12/18 20:36:40;;;;;;;36.90;16.80;;;;;;;2.46;84.87;99799.55;261540;1101;23365;-75
2020/12/18 20:41:42;;;;;;;48.17;21.33;;;;;;;2.42;84.97;99803.66;261472;1101;23367;-74
2020/12/18 20:46:48;;;;;;;53.15;22.05;;;;;;;2.44;84.82;99793.66;261546;1101;23555;-74
2020/12/18 20:51:50;;;;;;;34.77;16.90;;;;;;;2.50;85.56;99794.66;261496;1101;23416;-74
2020/12/18 20:56:52;;;;;;;53.03;23.70;;;;;;;2.45;85.62;99802.39;261478;1101;23560;-74
2020/12/18 21:01:54;;;;;;;37.80;17.80;;;;;;;2.38;85.32;99803.25;261519;1101;23405;-76
2020/12/18 21:06:57;;;;;;;38.10;17.83;;;;;;;2.39;85.18;99809.34;261398;1101;23979;-76
2020/12/18 21:11:59;;;;;;;40.93;18.50;;;;;;;2.33;85.94;99807.54;261489;1101;23365;-75
2020/12/18 21:17:01;;;;;;;35.63;16.40;;;;;;;2.32;85.74;99824.42;261457;1101;23365;-75
2020/12/18 21:22:03;;;;;;;27.27;13.47;;;;;;;2.28;85.67;99824.04;261678;1101;23495;-74
2020/12/18 21:27:05;;;;;;;35.37;15.80;;;;;;;2.25;85.62;99818.34;261507;1101;23424;-75
2020/12/18 21:32:11;;;;;;;31.67;14.83;;;;;;;2.22;85.77;99815.11;261520;1101;23365;-74
2020/12/18 21:37:15;;;;;;;37.97;17.97;;;;;;;2.22;85.86;99815.11;261575;1101;23632;-75
2020/12/18 21:42:17;;;;;;;40.10;18.33;;;;;;;2.27;86.11;99808.36;261558;1101;23368;-75
2020/12/18 21:47:20;;;;;;;35.17;16.37;;;;;;;2.28;86.12;99809.98;261565;1101;23461;-77
2020/12/18 21:52:22;;;;;;;44.87;19.80;;;;;;;2.30;86.52;99803.48;261460;1101;23353;-75
2020/12/18 21:57:25;;;;;;;36.37;17.93;;;;;;;2.32;85.46;99795.33;261483;1101;23362;-76
2020/12/18 22:02:31;;;;;;;43.05;18.90;;;;;;;2.29;86.19;99798.40;261433;1101;23374;-74
2020/12/18 22:07:33;;;;;;;30.65;15.30;;;;;;;2.34;85.80;99803.88;261531;1102;26867;-75
2020/12/18 22:12:35;;;;;;;28.03;15.03;;;;;;;2.35;86.00;99802.84;261399;1101;23443;-75
2020/12/18 22:17:37;;;;;;;42.00;18.27;;;;;;;2.32;85.78;99798.81;261504;1102;23559;-75
2020/12/18 22:22:40;;;;;;;34.83;16.43;;;;;;;2.30;85.62;99795.55;261477;1102;23697;-75
2020/12/18 22:27:42;;;;;;;38.27;18.27;;;;;;;2.27;86.00;99792.49;261554;1101;23368;-75
2020/12/18 22:32:44;;;;;;;33.30;14.53;;;;;;;2.20;85.43;99795.98;261597;1101;23450;-74
2020/12/18 22:37:47;;;;;;;28.23;13.90;;;;;;;2.20;85.54;99809.20;261447;1101;23357;-75
2020/12/18 22:42:50;;;;;;;30.63;14.80;;;;;;;2.21;85.58;99797.61;261475;1101;23417;-74
2020/12/18 22:47:52;;;;;;;34.27;17.80;;;;;;;2.24;85.68;99791.10;261591;1101;23353;-75
2020/12/18 22:52:55;;;;;;;38.67;18.13;;;;;;;2.23;85.78;99798.20;261513;1101;23478;-74
2020/12/18 22:57:57;;;;;;;41.15;18.20;;;;;;;2.26;85.43;99789.05;261400;1101;23469;-75
2020/12/18 23:02:59;;;;;;;35.83;16.70;;;;;;;2.27;85.60;99795.14;261447;1101;23477;-76
2020/12/18 23:08:01;;;;;;;31.87;14.40;;;;;;;2.16;85.74;99791.33;261414;1101;23362;-75
2020/12/18 23:13:04;;;;;;;28.93;13.13;;;;;;;2.12;85.89;99795.41;261438;1101;23419;-74
2020/12/18 23:18:06;;;;;;;23.63;12.00;;;;;;;2.06;85.78;99791.76;261475;1101;23383;-74
2020/12/18 23:23:09;;;;;;;24.45;12.45;;;;;;;2.02;85.90;99787.91;261501;1101;23408;-75